M/T Arcadia — SY7849 — position and weather

sailwx.info

Track history (hours):
 
Tides and Currents Weather Stations Pressure Air Temp Water Temp Dewpoint Dewpoint Depression Visibility Wind Speed Wind Dir Waves Ship Positions

M/T Arcadia

Last reported at 2015-Mar-03 12:33 UTC. Time now 2015-Mar-03 12:39 UTC.
Position N 37°31' E 023°33'.

Length 76 m; draft 4.4 m.

Type: Ship. MMSI: 240560000.

Date/timePositionNaut miles runAvg speedWind from/ knotsBaromVisibWave heightAir tempDewpointWater temp
2015-Mar-03 12:33N 37°31' E 023°33'8 8.1
2015-Mar-03 11:31N 37°23' E 023°36'17 8.0
2015-Mar-03 09:24N 37°06' E 023°31'8 8.1
2015-Mar-03 08:27N 36°59' E 023°27'  
2015-Mar-01 03:33N 37°31' E 023°35'7 7.4
2015-Mar-01 02:33N 37°37' E 023°31'8 7.8
2015-Mar-01 01:33N 37°40' E 023°21'7 6.8
2015-Mar-01 00:33N 37°45' E 023°16'9 7.9
2015-Feb-28 23:25N 37°52' E 023°09'4 0.1
2015-Feb-27 21:23N 37°55' E 023°06'0 0.0
2015-Feb-27 20:11N 37°55' E 023°06'0 0.0
2015-Feb-27 16:25N 37°55' E 023°06'0 0.0
2015-Feb-27 15:31N 37°55' E 023°06'0 0.0
2015-Feb-27 12:20N 37°55' E 023°06'0 0.0
2015-Feb-27 05:19N 37°55' E 023°06'0 0.0
2015-Feb-27 03:25N 37°55' E 023°06'0 0.0
2015-Feb-26 11:10N 37°55' E 023°06'0 0.0
2015-Feb-26 10:26N 37°55' E 023°06'0 0.0
2015-Feb-26 09:31N 37°55' E 023°06'0 0.0
2015-Feb-26 08:10N 37°55' E 023°06'0 0.0
2015-Feb-26 00:13N 37°55' E 023°06'0 0.0
2015-Feb-25 17:09N 37°55' E 023°06'4 7.2
2015-Feb-25 16:33N 37°52' E 023°11'8 8.0
2015-Feb-25 15:33N 37°45' E 023°16'7 7.1
2015-Feb-25 14:33N 37°40' E 023°21'8 7.6
2015-Feb-25 13:34N 37°35' E 023°28'8 7.9
2015-Feb-25 12:33N 37°28' E 023°34'17 7.5
2015-Feb-25 10:16N 37°12' E 023°30'11 0.2
2015-Feb-23 10:13N 37°23' E 023°29'12 5.7
2015-Feb-23 08:05N 37°35' E 023°29'5 7.6
2015-Feb-23 07:25N 37°39' E 023°24'  
Track history (hours):
 
Tides and Currents Weather Stations Pressure Air Temp Water Temp Dewpoint Dewpoint Depression Visibility Wind Speed Wind Dir Waves Ship Positions

M/T Arcadia

Last reported at 2015-Mar-03 12:33 UTC. Time now 2015-Mar-03 12:39 UTC.
Position N 37°31' E 023°33'.

Length 76 m; draft 4.4 m.

Type: Ship. MMSI: 240560000.

Date/timePositionNaut miles runAvg speedWind from/ knotsBaromVisibWave heightAir tempDewpointWater temp
2015-Mar-03 12:33N 37°31' E 023°33'8 8.1
2015-Mar-03 11:31N 37°23' E 023°36'17 8.0
2015-Mar-03 09:24N 37°06' E 023°31'8 8.1
2015-Mar-03 08:27N 36°59' E 023°27'  
2015-Mar-01 03:33N 37°31' E 023°35'7 7.4
2015-Mar-01 02:33N 37°37' E 023°31'8 7.8
2015-Mar-01 01:33N 37°40' E 023°21'7 6.8
2015-Mar-01 00:33N 37°45' E 023°16'9 7.9
2015-Feb-28 23:25N 37°52' E 023°09'4 0.1
2015-Feb-27 21:23N 37°55' E 023°06'0 0.0
2015-Feb-27 20:11N 37°55' E 023°06'0 0.0
2015-Feb-27 16:25N 37°55' E 023°06'0 0.0
2015-Feb-27 15:31N 37°55' E 023°06'0 0.0
2015-Feb-27 12:20N 37°55' E 023°06'0 0.0
2015-Feb-27 05:19N 37°55' E 023°06'0 0.0
2015-Feb-27 03:25N 37°55' E 023°06'0 0.0
2015-Feb-26 11:10N 37°55' E 023°06'0 0.0
2015-Feb-26 10:26N 37°55' E 023°06'0 0.0
2015-Feb-26 09:31N 37°55' E 023°06'0 0.0
2015-Feb-26 08:10N 37°55' E 023°06'0 0.0
2015-Feb-26 00:13N 37°55' E 023°06'0 0.0
2015-Feb-25 17:09N 37°55' E 023°06'4 7.2
2015-Feb-25 16:33N 37°52' E 023°11'8 8.0
2015-Feb-25 15:33N 37°45' E 023°16'7 7.1
2015-Feb-25 14:33N 37°40' E 023°21'8 7.6
2015-Feb-25 13:34N 37°35' E 023°28'8 7.9
2015-Feb-25 12:33N 37°28' E 023°34'17 7.5
2015-Feb-25 10:16N 37°12' E 023°30'11 0.2
2015-Feb-23 10:13N 37°23' E 023°29'12 5.7
2015-Feb-23 08:05N 37°35' E 023°29'5 7.6
2015-Feb-23 07:25N 37°39' E 023°24'  

Dump ship's entire track history